HTMW

Mwanza Airport

Mwanza, Tanzania
METAR HTMW 200500Z 10006KT 9999 FEW023 FEW024CB BKN100 22/18 Q1015 NOSIG
Observed Flight Rules
Feb-20 @ 05:00 UTC (2 hours ago) Visual Flight Rules
Wind Visibility Clouds
100° at 6 knots 10,000+ meters
  • Few at 2,300' AGL
  • Few at 2,400' AGL
  • Broken at 10,000' AGL
Temperatures Readings
Current 22°C / 72°F
Dewpoint 18°C / 64°F
Humidity 78%
Altimeter 29.97" Hg
Pressure 1015 hPa
Elevation 1140
METAR HTMW 200500Z 10006KT 9999 FEW023 FEW024CB BKN100 22/18 Q1015 NOSIG
Observed Flight Rules
Feb-20 @ 05:00 UTC
(2 hours ago)
VFR
Wind Visibility
100° at 6 knots 10,000+ meters
Clouds
  • Few at 2,300' AGL
  • Few at 2,400' AGL
  • Broken at 10,000' AGL
Temperature Dewpoint
22°C / 72°F 18°C / 64°F
Humidity Altimeter Pressure
78% 29.97" Hg 1015 hPa